createdAt,value
2019-02-23T00:00:48.625Z,4.80
2019-02-23T00:03:17.650Z,4.80
2019-02-23T00:05:46.681Z,4.90
2019-02-23T00:08:15.654Z,4.90
2019-02-23T00:10:44.662Z,4.80
2019-02-23T00:13:15.180Z,4.70
2019-02-23T00:15:44.193Z,4.70
2019-02-23T00:18:13.202Z,4.70
2019-02-23T00:20:42.220Z,4.60
2019-02-23T00:23:11.277Z,4.50
2019-02-23T00:25:40.287Z,4.60
2019-02-23T00:28:09.325Z,4.50
2019-02-23T00:30:38.333Z,4.60
2019-02-23T00:33:07.320Z,4.60
2019-02-23T00:35:36.351Z,4.60
2019-02-23T00:38:05.347Z,4.50
2019-02-23T00:40:34.369Z,4.50
2019-02-23T00:43:03.318Z,4.50
2019-02-23T00:45:32.338Z,4.40
2019-02-23T00:48:01.268Z,4.40
2019-02-23T00:50:30.201Z,4.40
2019-02-23T00:52:59.118Z,4.30
2019-02-23T00:55:27.990Z,4.20
2019-02-23T00:57:56.972Z,4.20
2019-02-23T01:00:30.122Z,4.20
2019-02-23T01:02:59.066Z,4.30
2019-02-23T01:05:27.981Z,4.30
2019-02-23T01:07:57.913Z,4.30
2019-02-23T01:10:26.998Z,4.20
2019-02-23T01:12:55.931Z,4.00
2019-02-23T01:15:24.940Z,4.10
2019-02-23T01:17:53.973Z,4.00
2019-02-23T01:20:23.093Z,4.10
2019-02-23T01:22:52.106Z,4.00
2019-02-23T01:25:21.195Z,4.00
2019-02-23T01:27:50.136Z,4.00
2019-02-23T01:30:19.115Z,3.90
2019-02-23T01:32:48.155Z,3.80
2019-02-23T01:35:17.211Z,3.80
2019-02-23T01:37:46.229Z,3.80
2019-02-23T01:40:15.275Z,3.80
2019-02-23T01:42:44.207Z,3.90
2019-02-23T01:45:13.213Z,4.00
2019-02-23T01:47:42.229Z,3.80
2019-02-23T01:50:11.254Z,3.70
2019-02-23T01:52:40.265Z,3.70
2019-02-23T01:55:09.630Z,3.60
2019-02-23T01:57:38.662Z,3.60
2019-02-23T02:00:10.929Z,3.60
2019-02-23T02:02:40.710Z,3.60
2019-02-23T02:05:10.063Z,3.60
2019-02-23T02:07:39.086Z,3.70
2019-02-23T02:10:09.393Z,3.60
2019-02-23T02:12:38.532Z,3.40
2019-02-23T02:15:09.889Z,3.50
2019-02-23T02:17:38.895Z,3.40
2019-02-23T02:20:11.255Z,3.40
2019-02-23T02:22:41.894Z,3.30
2019-02-23T02:25:10.897Z,3.20
2019-02-23T02:27:39.885Z,3.20
2019-02-23T02:30:10.609Z,3.30
2019-02-23T02:32:39.623Z,3.20
2019-02-23T02:35:09.645Z,3.10
2019-02-23T02:37:38.661Z,3.20
2019-02-23T02:40:13.465Z,3.30
2019-02-23T02:42:42.386Z,3.20
2019-02-23T02:45:11.611Z,3.10
2019-02-23T02:47:40.548Z,3.10
2019-02-23T02:50:23.369Z,3.10
2019-02-23T02:52:41.350Z,3.10
2019-02-23T02:55:10.306Z,3.00
2019-02-23T02:57:39.310Z,3.00
2019-02-23T03:00:10.507Z,3.10
2019-02-23T03:02:42.740Z,3.10
2019-02-23T03:05:11.781Z,3.10
2019-02-23T03:07:40.707Z,3.10
2019-02-23T03:10:09.690Z,3.10
2019-02-23T03:12:38.721Z,3.10
2019-02-23T03:15:07.905Z,3.20
2019-02-23T03:17:38.958Z,3.20
2019-02-23T03:20:08.621Z,3.50
2019-02-23T03:22:37.550Z,3.50
2019-02-23T03:25:06.760Z,3.50
2019-02-23T03:27:38.201Z,3.50
2019-02-23T03:30:08.963Z,3.50
2019-02-23T03:32:37.890Z,3.50
2019-02-23T03:35:08.538Z,3.50
2019-02-23T03:37:40.560Z,3.50
2019-02-23T03:40:09.808Z,3.40
2019-02-23T03:42:38.777Z,3.30
2019-02-23T03:45:09.088Z,3.50
2019-02-23T03:47:38.088Z,3.50
2019-02-23T03:50:07.342Z,3.40
2019-02-23T03:52:36.258Z,3.30
2019-02-23T03:55:05.609Z,3.40
2019-02-23T03:57:34.456Z,3.50
2019-02-23T04:00:06.890Z,3.50
2019-02-23T04:02:35.799Z,3.50
2019-02-23T04:05:05.513Z,3.40
2019-02-23T04:07:34.469Z,3.50
2019-02-23T04:10:03.355Z,3.50
2019-02-23T04:12:34.313Z,3.40
2019-02-23T04:15:03.082Z,3.30
2019-02-23T04:17:32.079Z,3.40
2019-02-23T04:20:01.386Z,3.30
2019-02-23T04:22:30.677Z,3.40
2019-02-23T04:24:59.685Z,3.40
2019-02-23T04:27:28.543Z,3.30
2019-02-23T04:29:57.541Z,3.30
2019-02-23T04:32:26.413Z,3.40
2019-02-23T04:35:04.251Z,3.40
2019-02-23T04:37:33.183Z,3.40
2019-02-23T04:40:02.054Z,3.40
2019-02-23T04:42:30.897Z,3.30
2019-02-23T04:44:59.787Z,3.10
2019-02-23T04:47:28.775Z,3.00
2019-02-23T04:49:57.773Z,2.90
2019-02-23T04:52:26.802Z,2.80
2019-02-23T04:54:55.793Z,2.60
2019-02-23T04:57:24.658Z,2.50
2019-02-23T04:59:53.480Z,2.40
2019-02-23T05:02:22.423Z,2.50
2019-02-23T05:04:51.341Z,2.60
2019-02-23T05:07:20.331Z,2.60
2019-02-23T05:09:49.209Z,2.50
2019-02-23T05:12:18.039Z,2.00
2019-02-23T05:14:46.962Z,1.80
2019-02-23T05:17:16.876Z,1.90
2019-02-23T05:19:45.865Z,1.90
2019-02-23T05:22:14.788Z,2.10
2019-02-23T05:24:43.687Z,2.10
2019-02-23T05:27:12.608Z,2.10
2019-02-23T05:29:41.543Z,2.00
2019-02-23T05:32:10.577Z,1.90
2019-02-23T05:34:39.413Z,1.90
2019-02-23T05:37:08.423Z,1.90
2019-02-23T05:39:37.333Z,1.80
2019-02-23T05:42:06.356Z,1.90
2019-02-23T05:44:35.198Z,1.70
2019-02-23T05:47:04.509Z,1.70
2019-02-23T05:49:36.497Z,1.90
2019-02-23T05:52:04.089Z,1.90
2019-02-23T05:54:33.016Z,1.80
2019-02-23T05:57:02.048Z,1.60
2019-02-23T05:59:30.907Z,1.60
2019-02-23T06:01:59.813Z,1.70
2019-02-23T06:04:28.747Z,1.60
2019-02-23T06:06:57.731Z,1.60
2019-02-23T06:09:26.579Z,1.60
2019-02-23T06:11:55.504Z,1.50
2019-02-23T06:14:24.349Z,1.60
2019-02-23T06:16:53.326Z,1.60
2019-02-23T06:19:24.225Z,1.60
2019-02-23T06:21:54.730Z,1.50
2019-02-23T06:24:23.953Z,1.50
2019-02-23T06:26:54.011Z,1.60
2019-02-23T06:29:23.957Z,1.50
2019-02-23T06:31:56.036Z,1.40
2019-02-23T06:34:25.024Z,1.40
2019-02-23T06:36:53.969Z,1.40
2019-02-23T06:39:22.981Z,1.60
2019-02-23T06:41:51.901Z,1.60
2019-02-23T06:44:20.754Z,1.20
2019-02-23T06:46:49.789Z,1.20
2019-02-23T06:49:18.633Z,1.30
2019-02-23T06:51:47.553Z,1.30
2019-02-23T06:54:16.416Z,1.30
2019-02-23T06:56:46.356Z,1.40
2019-02-23T06:59:15.204Z,1.30
2019-02-23T07:01:44.311Z,1.10
2019-02-23T07:04:13.225Z,1.00
2019-02-23T07:06:42.605Z,1.20
2019-02-23T07:09:11.540Z,1.10
2019-02-23T07:11:40.529Z,1.30
2019-02-23T07:14:09.856Z,1.20
2019-02-23T07:16:38.799Z,1.00
2019-02-23T07:19:07.804Z,1.20
2019-02-23T07:21:36.785Z,1.30
2019-02-23T07:24:05.803Z,1.30
2019-02-23T07:26:35.721Z,1.30
2019-02-23T07:29:04.763Z,1.50
2019-02-23T07:31:34.766Z,1.10
2019-02-23T07:34:04.152Z,1.10
2019-02-23T07:36:33.117Z,1.50
2019-02-23T07:39:02.215Z,1.50
2019-02-23T07:41:31.313Z,1.60
2019-02-23T07:44:00.400Z,1.50
2019-02-23T07:46:29.494Z,1.30
2019-02-23T07:48:58.468Z,1.40
2019-02-23T07:51:27.497Z,1.40
2019-02-23T07:53:56.401Z,1.80
2019-02-23T07:56:25.619Z,1.90
2019-02-23T07:58:54.689Z,1.80
2019-02-23T08:01:23.785Z,1.90
2019-02-23T08:03:52.837Z,1.70
2019-02-23T08:06:21.879Z,1.50
2019-02-23T08:08:50.820Z,1.60
2019-02-23T08:11:19.917Z,1.70
2019-02-23T08:13:48.920Z,1.90
2019-02-23T08:16:17.970Z,2.10
2019-02-23T08:18:47.058Z,2.40
2019-02-23T08:21:16.052Z,2.10
2019-02-23T08:23:44.937Z,1.90
2019-02-23T08:26:14.112Z,2.10
2019-02-23T08:28:43.082Z,2.30
2019-02-23T08:31:13.410Z,2.50
2019-02-23T08:33:42.773Z,2.70
2019-02-23T08:36:11.874Z,2.80
2019-02-23T08:38:43.257Z,2.60
2019-02-23T08:41:18.340Z,2.90
2019-02-23T08:43:47.414Z,2.80
2019-02-23T08:46:39.605Z,2.60
2019-02-23T08:49:14.661Z,2.60
2019-02-23T08:51:43.609Z,2.70
2019-02-23T08:54:14.338Z,3.00
2019-02-23T08:56:44.389Z,3.10
2019-02-23T08:59:18.263Z,3.00
2019-02-23T09:02:05.720Z,3.00
2019-02-23T09:04:34.866Z,3.20
2019-02-23T09:07:03.897Z,3.10
2019-02-23T09:09:39.275Z,3.20
2019-02-23T09:12:08.319Z,3.30
2019-02-23T09:14:37.355Z,3.10
2019-02-23T09:17:09.636Z,3.00
2019-02-23T09:19:40.989Z,3.00
2019-02-23T09:22:31.694Z,2.90
2019-02-23T09:25:09.809Z,3.00
2019-02-23T09:27:42.438Z,3.20
2019-02-23T09:30:12.793Z,3.30
2019-02-23T09:32:41.854Z,3.50
2019-02-23T09:35:11.115Z,3.50
2019-02-23T09:37:41.280Z,3.60
2019-02-23T09:40:10.509Z,3.40
2019-02-23T09:42:39.758Z,3.50
2019-02-23T09:45:11.353Z,3.70
2019-02-23T09:47:40.420Z,3.50
2019-02-23T09:50:09.464Z,3.40
2019-02-23T09:52:40.106Z,3.50
2019-02-23T09:55:28.954Z,3.60
2019-02-23T09:57:59.288Z,3.80
2019-02-23T10:00:29.674Z,3.80
2019-02-23T10:03:10.941Z,3.90
2019-02-23T10:05:48.968Z,4.10
2019-02-23T10:08:19.119Z,4.10
2019-02-23T10:11:06.581Z,4.20
2019-02-23T10:13:36.726Z,4.20
2019-02-23T10:16:09.292Z,3.90
2019-02-23T10:18:38.602Z,4.00
2019-02-23T10:21:07.686Z,3.90
2019-02-23T10:23:36.882Z,3.90
2019-02-23T10:26:05.839Z,4.10
2019-02-23T10:28:34.870Z,4.10
2019-02-23T10:31:05.957Z,4.20
2019-02-23T10:33:38.412Z,4.30
2019-02-23T10:36:07.480Z,4.60
2019-02-23T10:38:36.553Z,4.70
2019-02-23T10:41:05.547Z,4.70
2019-02-23T10:43:34.697Z,4.80
2019-02-23T10:46:03.634Z,4.80
2019-02-23T10:48:33.581Z,4.90
2019-02-23T10:51:03.629Z,5.00
2019-02-23T10:53:33.665Z,4.80
2019-02-23T10:56:02.702Z,4.90
2019-02-23T10:58:33.818Z,5.00
2019-02-23T11:01:02.828Z,4.90
2019-02-23T11:03:31.877Z,5.00
2019-02-23T11:06:15.238Z,5.00
2019-02-23T11:08:46.288Z,5.00
2019-02-23T11:11:15.302Z,5.20
2019-02-23T11:13:50.219Z,5.20
2019-02-23T11:16:19.284Z,5.20
2019-02-23T11:18:48.299Z,5.40
2019-02-23T11:21:18.399Z,5.50
2019-02-23T11:23:47.501Z,5.50
2019-02-23T11:26:18.675Z,5.70
2019-02-23T11:28:47.694Z,5.80
2019-02-23T11:31:16.621Z,5.70
2019-02-23T11:33:45.678Z,5.60
2019-02-23T11:36:14.709Z,5.60
2019-02-23T11:38:43.729Z,5.70
2019-02-23T11:41:18.554Z,5.90
2019-02-23T11:43:50.664Z,5.90
2019-02-23T11:46:25.763Z,6.00
2019-02-23T11:48:54.709Z,6.00
2019-02-23T11:51:23.829Z,6.00
2019-02-23T11:53:55.268Z,6.00
2019-02-23T11:56:23.777Z,6.00
2019-02-23T11:58:52.914Z,6.00
2019-02-23T12:01:21.930Z,6.20
2019-02-23T12:03:53.226Z,6.20
2019-02-23T12:06:22.237Z,6.20
2019-02-23T12:08:53.385Z,6.20
2019-02-23T12:11:22.616Z,6.20
2019-02-23T12:13:51.726Z,6.30
2019-02-23T12:16:20.657Z,6.30
2019-02-23T12:18:50.930Z,6.20
2019-02-23T12:21:19.897Z,6.30
2019-02-23T12:23:48.888Z,6.40
2019-02-23T12:26:19.015Z,6.60
2019-02-23T12:28:51.221Z,6.60
2019-02-23T12:31:20.194Z,6.60
2019-02-23T12:33:51.287Z,6.80
2019-02-23T12:36:21.333Z,6.90
2019-02-23T12:38:50.478Z,7.00
2019-02-23T12:41:19.666Z,7.10
2019-02-23T12:43:48.708Z,7.00
2019-02-23T12:46:17.592Z,7.00
2019-02-23T12:48:46.557Z,7.10
2019-02-23T12:51:15.586Z,7.10
2019-02-23T12:53:44.438Z,7.20
2019-02-23T12:56:13.445Z,7.20
2019-02-23T12:58:42.481Z,7.00
2019-02-23T13:01:11.489Z,7.00
2019-02-23T13:03:40.532Z,7.00
2019-02-23T13:06:09.540Z,7.00
2019-02-23T13:09:24.770Z,7.00
2019-02-23T13:12:15.955Z,7.10
2019-02-23T13:14:58.577Z,7.10
2019-02-23T13:17:58.025Z,7.20
2019-02-23T13:21:22.516Z,7.10
2019-02-23T13:24:28.233Z,7.00
2019-02-23T13:27:32.827Z,7.00
2019-02-23T13:30:18.230Z,7.00
2019-02-23T13:33:14.841Z,7.00
2019-02-23T13:36:09.766Z,7.20
2019-02-23T13:39:20.426Z,7.10
2019-02-23T13:42:14.706Z,7.30
2019-02-23T13:45:22.557Z,7.40
2019-02-23T13:48:24.990Z,7.40
2019-02-23T13:51:10.776Z,7.40
2019-02-23T13:54:16.394Z,7.50
2019-02-23T13:57:44.680Z,7.60
2019-02-23T14:00:56.268Z,7.60
2019-02-23T14:03:58.542Z,7.60
2019-02-23T14:07:17.596Z,7.50
2019-02-23T14:10:21.866Z,7.70
2019-02-23T14:13:32.057Z,7.60
2019-02-23T14:16:13.295Z,7.40
2019-02-23T14:19:28.034Z,7.60
2019-02-23T14:22:28.910Z,7.60
2019-02-23T14:25:26.553Z,7.50
2019-02-23T14:28:33.993Z,7.60
2019-02-23T14:31:09.195Z,7.80
2019-02-23T14:34:15.186Z,7.90
2019-02-23T14:37:07.193Z,8.00
2019-02-23T14:40:03.441Z,7.90
2019-02-23T14:43:01.319Z,7.80
2019-02-23T14:46:03.239Z,7.80
2019-02-23T14:49:11.449Z,7.90
2019-02-23T14:52:22.341Z,7.90
2019-02-23T14:55:30.653Z,7.90
2019-02-23T14:58:24.369Z,7.70
2019-02-23T15:01:34.818Z,7.80
2019-02-23T15:05:06.202Z,7.70
2019-02-23T15:08:19.442Z,7.70
2019-02-23T15:11:32.299Z,7.70
2019-02-23T15:14:37.173Z,7.70
2019-02-23T15:17:47.927Z,7.60
2019-02-23T15:20:44.895Z,7.50
2019-02-23T15:24:13.379Z,7.40
2019-02-23T15:27:19.114Z,7.30
2019-02-23T15:30:20.416Z,7.30
2019-02-23T15:33:33.818Z,7.30
2019-02-23T15:36:32.572Z,7.20
2019-02-23T15:39:28.358Z,7.20
2019-02-23T15:42:41.219Z,7.20
2019-02-23T15:46:09.455Z,7.10
2019-02-23T15:49:20.539Z,7.10
2019-02-23T15:51:49.566Z,7.00
2019-02-23T15:54:18.618Z,7.00
2019-02-23T15:56:47.611Z,7.00
2019-02-23T15:59:16.782Z,6.90
2019-02-23T16:01:45.931Z,6.80
2019-02-23T16:04:14.882Z,6.80
2019-02-23T16:06:43.962Z,6.70
2019-02-23T16:09:13.131Z,6.70
2019-02-23T16:11:45.086Z,6.60
2019-02-23T16:14:12.889Z,6.60
2019-02-23T16:16:41.898Z,6.50
2019-02-23T16:19:10.927Z,6.50
2019-02-23T16:21:39.950Z,6.50
2019-02-23T16:24:08.999Z,6.50
2019-02-23T16:26:38.020Z,6.40
2019-02-23T16:29:07.093Z,6.30
2019-02-23T16:31:36.118Z,6.30
2019-02-23T16:34:07.347Z,6.20
2019-02-23T16:36:35.845Z,6.20
2019-02-23T16:39:12.758Z,6.10
2019-02-23T16:41:41.795Z,6.00
2019-02-23T16:44:10.857Z,5.90
2019-02-23T16:46:58.998Z,6.00
2019-02-23T16:49:28.260Z,5.90
2019-02-23T16:51:58.422Z,5.80
2019-02-23T16:54:27.581Z,5.80
2019-02-23T16:56:56.678Z,5.70
2019-02-23T16:59:25.663Z,5.80
2019-02-23T17:01:54.829Z,5.80
2019-02-23T17:04:24.976Z,5.80
2019-02-23T17:06:54.020Z,5.70
2019-02-23T17:09:25.449Z,5.70
2019-02-23T17:11:54.947Z,5.70
2019-02-23T17:14:24.980Z,5.70
2019-02-23T17:16:55.098Z,5.70
2019-02-23T17:19:24.088Z,5.60
2019-02-23T17:21:55.207Z,5.50
2019-02-23T17:24:30.142Z,5.50
2019-02-23T17:26:59.214Z,5.40
2019-02-23T17:29:29.205Z,5.40
2019-02-23T17:31:58.350Z,5.40
2019-02-23T17:34:28.458Z,5.30
2019-02-23T17:36:58.465Z,5.30
2019-02-23T17:39:27.478Z,5.20
2019-02-23T17:41:57.582Z,5.30
2019-02-23T17:44:26.585Z,5.10
2019-02-23T17:46:55.649Z,5.10
2019-02-23T17:49:24.605Z,5.00
2019-02-23T17:52:02.743Z,5.00
2019-02-23T17:54:31.854Z,5.10
2019-02-23T17:57:03.718Z,5.00
2019-02-23T17:59:33.816Z,5.00
2019-02-23T18:02:02.877Z,5.00
2019-02-23T18:04:37.029Z,5.00
2019-02-23T18:07:05.998Z,5.00
2019-02-23T18:09:35.148Z,4.90
2019-02-23T18:12:04.238Z,4.90
2019-02-23T18:14:35.558Z,4.80
2019-02-23T18:17:04.578Z,4.80
2019-02-23T18:19:33.574Z,4.60
2019-02-23T18:22:10.589Z,4.60
2019-02-23T18:24:44.251Z,4.60
2019-02-23T18:27:28.436Z,4.50
2019-02-23T18:29:58.439Z,4.60
2019-02-23T18:32:28.483Z,4.40
2019-02-23T18:35:00.488Z,4.50
2019-02-23T18:37:29.896Z,4.40
2019-02-23T18:40:03.453Z,4.20
2019-02-23T18:42:32.626Z,4.30
2019-02-23T18:45:09.786Z,4.30
2019-02-23T18:47:57.549Z,4.40
2019-02-23T18:50:26.586Z,4.40
2019-02-23T18:53:01.774Z,4.20
2019-02-23T18:55:41.070Z,4.10
2019-02-23T18:58:17.905Z,4.20
2019-02-23T19:00:53.819Z,4.30
2019-02-23T19:03:29.604Z,4.30
2019-02-23T19:05:59.657Z,4.20
2019-02-23T19:08:28.777Z,4.10
2019-02-23T19:11:21.674Z,4.00
2019-02-23T19:13:58.542Z,3.90
2019-02-23T19:16:27.547Z,4.00
2019-02-23T19:18:56.725Z,4.00
2019-02-23T19:21:40.859Z,3.80
2019-02-23T19:24:09.958Z,3.70
2019-02-23T19:26:39.973Z,3.70
2019-02-23T19:29:10.005Z,3.70
2019-02-23T19:31:39.370Z,3.70
2019-02-23T19:34:08.519Z,3.60
2019-02-23T19:36:37.538Z,3.60
2019-02-23T19:39:07.191Z,3.50
2019-02-23T19:41:36.287Z,3.50
2019-02-23T19:44:05.802Z,3.50
2019-02-23T19:46:38.280Z,3.50
2019-02-23T19:49:07.329Z,3.30
2019-02-23T19:51:42.402Z,3.30
2019-02-23T19:54:13.843Z,3.20
2019-02-23T19:56:46.749Z,3.10
2019-02-23T19:59:14.711Z,3.20
2019-02-23T20:01:44.789Z,3.10
2019-02-23T20:04:14.830Z,3.20
2019-02-23T20:06:44.951Z,3.10
2019-02-23T20:09:18.097Z,3.10
2019-02-23T20:11:48.375Z,3.00
2019-02-23T20:14:23.525Z,2.90
2019-02-23T20:16:53.593Z,2.90
2019-02-23T20:19:23.425Z,2.90
2019-02-23T20:21:55.816Z,3.00
2019-02-23T20:24:27.938Z,3.00
2019-02-23T20:26:59.002Z,3.00
2019-02-23T20:29:29.098Z,3.00
2019-02-23T20:31:59.083Z,3.00
2019-02-23T20:34:34.034Z,2.90
2019-02-23T20:37:03.081Z,2.80
2019-02-23T20:39:32.118Z,2.70
2019-02-23T20:42:08.186Z,2.60
2019-02-23T20:44:40.721Z,2.40
2019-02-23T20:47:09.965Z,2.30
2019-02-23T20:49:38.898Z,2.50
2019-02-23T20:52:08.917Z,2.50
2019-02-23T20:54:37.998Z,2.60
2019-02-23T20:57:13.720Z,2.70
2019-02-23T20:59:38.933Z,2.60
2019-02-23T21:02:14.002Z,2.60
2019-02-23T21:04:43.045Z,2.60
2019-02-23T21:07:12.070Z,2.50
2019-02-23T21:09:41.222Z,2.40
2019-02-23T21:12:10.282Z,2.50
2019-02-23T21:14:39.313Z,2.40
2019-02-23T21:17:08.180Z,2.40
2019-02-23T21:19:38.322Z,2.40
2019-02-23T21:22:07.195Z,2.40
2019-02-23T21:24:36.089Z,2.30
2019-02-23T21:27:12.830Z,2.30
2019-02-23T21:29:38.762Z,2.40
2019-02-23T21:32:08.789Z,2.30
2019-02-23T21:34:43.929Z,2.30
2019-02-23T21:37:12.904Z,2.30
2019-02-23T21:39:41.898Z,2.30
2019-02-23T21:42:10.944Z,2.10
2019-02-23T21:44:40.084Z,2.10
2019-02-23T21:47:15.016Z,2.10
2019-02-23T21:49:46.073Z,2.10
2019-02-23T21:52:21.238Z,2.10
2019-02-23T21:54:53.559Z,2.10
2019-02-23T21:57:22.640Z,2.10
2019-02-23T21:59:51.747Z,2.00
2019-02-23T22:02:20.850Z,2.10
2019-02-23T22:04:49.978Z,2.10
2019-02-23T22:07:29.130Z,2.10
2019-02-23T22:09:58.275Z,2.00
2019-02-23T22:12:27.297Z,2.00
2019-02-23T22:14:56.268Z,2.00
2019-02-23T22:17:27.422Z,2.00
2019-02-23T22:19:57.538Z,2.00
2019-02-23T22:22:26.661Z,1.90
2019-02-23T22:24:56.753Z,2.00
2019-02-23T22:27:31.267Z,2.00
2019-02-23T22:29:58.710Z,2.10
2019-02-23T22:32:27.735Z,2.10
2019-02-23T22:34:56.786Z,2.10
2019-02-23T22:37:26.931Z,2.00
2019-02-23T22:40:03.063Z,2.00
2019-02-23T22:42:32.189Z,2.00
2019-02-23T22:45:01.283Z,1.90
2019-02-23T22:47:32.442Z,1.80
2019-02-23T22:50:03.557Z,1.80
2019-02-23T22:52:33.686Z,1.80
2019-02-23T22:55:04.855Z,1.80
2019-02-23T22:57:40.603Z,1.60
2019-02-23T23:00:06.015Z,1.50
2019-02-23T23:02:35.082Z,1.50
2019-02-23T23:05:04.370Z,1.70
2019-02-23T23:07:36.561Z,1.60
2019-02-23T23:10:11.789Z,1.60
2019-02-23T23:12:43.029Z,1.40
2019-02-23T23:15:13.176Z,1.40
2019-02-23T23:17:45.453Z,1.40
2019-02-23T23:20:16.567Z,1.40
2019-02-23T23:22:47.848Z,1.40
2019-02-23T23:25:16.835Z,1.40
2019-02-23T23:27:49.485Z,1.30
2019-02-23T23:30:24.635Z,1.20
2019-02-23T23:32:55.759Z,1.30
2019-02-23T23:35:24.847Z,1.40
2019-02-23T23:37:54.964Z,1.30
2019-02-23T23:40:31.976Z,1.30
2019-02-23T23:43:01.982Z,1.40
2019-02-23T23:45:30.992Z,1.30
2019-02-23T23:48:03.093Z,1.40
2019-02-23T23:50:32.830Z,1.40
2019-02-23T23:53:09.718Z,1.30
2019-02-23T23:55:38.766Z,1.30
2019-02-23T23:58:07.898Z,1.30
